sensor_id;sensor_type;location;lat;lon;timestamp;temperature;humidity
7934;DHT22;4012;48.896;9.192;2024-01-10T00:00:13;-2.00;99.90
7934;DHT22;4012;48.896;9.192;2024-01-10T00:02:38;-1.90;99.90
7934;DHT22;4012;48.896;9.192;2024-01-10T00:05:04;-2.00;99.90
7934;DHT22;4012;48.896;9.192;2024-01-10T00:07:30;-2.20;99.90
7934;DHT22;4012;48.896;9.192;2024-01-10T00:09:56;-2.20;99.90
7934;DHT22;4012;48.896;9.192;2024-01-10T00:12:22;-2.10;99.90
7934;DHT22;4012;48.896;9.192;2024-01-10T00:14:48;-2.10;99.90
7934;DHT22;4012;48.896;9.192;2024-01-10T00:17:13;-2.00;99.90
7934;DHT22;4012;48.896;9.192;2024-01-10T00:19:39;-1.90;99.90
7934;DHT22;4012;48.896;9.192;2024-01-10T00:22:05;-2.00;99.90
7934;DHT22;4012;48.896;9.192;2024-01-10T00:24:30;-1.90;99.90
7934;DHT22;4012;48.896;9.192;2024-01-10T00:26:56;-2.00;99.90
7934;DHT22;4012;48.896;9.192;2024-01-10T00:29:21;-2.00;99.90
7934;DHT22;4012;48.896;9.192;2024-01-10T00:31:47;-2.10;99.90
7934;DHT22;4012;48.896;9.192;2024-01-10T00:34:13;-2.20;99.90
7934;DHT22;4012;48.896;9.192;2024-01-10T00:36:39;-2.20;99.90
7934;DHT22;4012;48.896;9.192;2024-01-10T00:39:04;-2.30;99.90
7934;DHT22;4012;48.896;9.192;2024-01-10T00:41:30;-2.30;99.90
7934;DHT22;4012;48.896;9.192;2024-01-10T00:43:55;-2.20;99.90
7934;DHT22;4012;48.896;9.192;2024-01-10T00:46:21;-2.20;99.90
7934;DHT22;4012;48.896;9.192;2024-01-10T00:48:46;-2.20;99.90
7934;DHT22;4012;48.896;9.192;2024-01-10T00:51:12;-2.10;99.90
7934;DHT22;4012;48.896;9.192;2024-01-10T00:53:37;-2.10;99.90
7934;DHT22;4012;48.896;9.192;2024-01-10T00:56:07;-2.10;99.90
7934;DHT22;4012;48.896;9.192;2024-01-10T00:58:33;-2.10;99.90
7934;DHT22;4012;48.896;9.192;2024-01-10T01:00:59;-2.10;99.90
7934;DHT22;4012;48.896;9.192;2024-01-10T01:03:24;-2.20;99.90
7934;DHT22;4012;48.896;9.192;2024-01-10T01:05:50;-2.20;99.90
7934;DHT22;4012;48.896;9.192;2024-01-10T01:08:15;-2.30;99.90
7934;DHT22;4012;48.896;9.192;2024-01-10T01:10:41;-2.30;99.90
7934;DHT22;4012;48.896;9.192;2024-01-10T01:13:06;-2.20;99.90
7934;DHT22;4012;48.896;9.192;2024-01-10T01:15:32;-2.30;99.90
7934;DHT22;4012;48.896;9.192;2024-01-10T01:17:58;-2.40;99.90
7934;DHT22;4012;48.896;9.192;2024-01-10T01:20:23;-2.50;99.90
7934;DHT22;4012;48.896;9.192;2024-01-10T01:22:49;-2.50;99.90
7934;DHT22;4012;48.896;9.192;2024-01-10T01:25:14;-2.50;99.90
7934;DHT22;4012;48.896;9.192;2024-01-10T01:27:40;-2.60;99.90
7934;DHT22;4012;48.896;9.192;2024-01-10T01:30:06;-2.60;99.90
7934;DHT22;4012;48.896;9.192;2024-01-10T01:32:32;-2.60;99.90
7934;DHT22;4012;48.896;9.192;2024-01-10T01:34:57;-2.60;99.90
7934;DHT22;4012;48.896;9.192;2024-01-10T01:37:23;-2.50;99.90
7934;DHT22;4012;48.896;9.192;2024-01-10T01:39:49;-2.50;99.90
7934;DHT22;4012;48.896;9.192;2024-01-10T01:42:15;-2.40;99.90
7934;DHT22;4012;48.896;9.192;2024-01-10T01:44:41;-2.50;99.90
7934;DHT22;4012;48.896;9.192;2024-01-10T01:47:06;-2.50;99.90
7934;DHT22;4012;48.896;9.192;2024-01-10T01:49:32;-2.50;99.90
7934;DHT22;4012;48.896;9.192;2024-01-10T01:51:59;-2.50;99.90
7934;DHT22;4012;48.896;9.192;2024-01-10T01:54:25;-2.40;99.90
7934;DHT22;4012;48.896;9.192;2024-01-10T01:56:51;-2.30;99.90
7934;DHT22;4012;48.896;9.192;2024-01-10T01:59:17;-2.40;99.90
7934;DHT22;4012;48.896;9.192;2024-01-10T02:01:43;-2.50;99.90
7934;DHT22;4012;48.896;9.192;2024-01-10T02:04:11;-2.40;99.90
7934;DHT22;4012;48.896;9.192;2024-01-10T02:06:37;-2.30;99.90
7934;DHT22;4012;48.896;9.192;2024-01-10T02:09:03;-2.40;99.90
7934;DHT22;4012;48.896;9.192;2024-01-10T02:11:29;-2.30;99.90
7934;DHT22;4012;48.896;9.192;2024-01-10T02:13:55;-2.20;99.90
7934;DHT22;4012;48.896;9.192;2024-01-10T02:16:23;-2.30;99.90
7934;DHT22;4012;48.896;9.192;2024-01-10T02:18:50;-2.30;99.90
7934;DHT22;4012;48.896;9.192;2024-01-10T02:21:16;-2.30;99.90
7934;DHT22;4012;48.896;9.192;2024-01-10T02:23:45;-2.20;99.90
7934;DHT22;4012;48.896;9.192;2024-01-10T02:26:11;-2.20;99.90
7934;DHT22;4012;48.896;9.192;2024-01-10T02:28:36;-2.20;99.90
7934;DHT22;4012;48.896;9.192;2024-01-10T02:31:02;-2.20;99.90
7934;DHT22;4012;48.896;9.192;2024-01-10T02:33:28;-2.10;99.90
7934;DHT22;4012;48.896;9.192;2024-01-10T02:35:53;-2.30;99.90
7934;DHT22;4012;48.896;9.192;2024-01-10T02:38:19;-2.30;99.90
7934;DHT22;4012;48.896;9.192;2024-01-10T02:40:46;-2.40;99.90
7934;DHT22;4012;48.896;9.192;2024-01-10T02:43:12;-2.40;99.90
7934;DHT22;4012;48.896;9.192;2024-01-10T02:45:38;-2.40;99.90
7934;DHT22;4012;48.896;9.192;2024-01-10T02:48:03;-2.50;99.90
7934;DHT22;4012;48.896;9.192;2024-01-10T02:50:29;-2.60;99.90
7934;DHT22;4012;48.896;9.192;2024-01-10T02:52:55;-2.60;99.90
7934;DHT22;4012;48.896;9.192;2024-01-10T02:55:20;-2.50;99.90
7934;DHT22;4012;48.896;9.192;2024-01-10T02:57:46;-2.40;99.90
7934;DHT22;4012;48.896;9.192;2024-01-10T03:00:12;-2.30;99.90
7934;DHT22;4012;48.896;9.192;2024-01-10T03:02:37;-2.60;99.90
7934;DHT22;4012;48.896;9.192;2024-01-10T03:05:03;-2.50;99.90
7934;DHT22;4012;48.896;9.192;2024-01-10T03:07:29;-2.50;99.90
7934;DHT22;4012;48.896;9.192;2024-01-10T03:09:55;-2.50;99.90
7934;DHT22;4012;48.896;9.192;2024-01-10T03:12:20;-2.40;99.90
7934;DHT22;4012;48.896;9.192;2024-01-10T03:14:46;-2.50;99.90
7934;DHT22;4012;48.896;9.192;2024-01-10T03:17:11;-2.40;99.90
7934;DHT22;4012;48.896;9.192;2024-01-10T03:19:37;-2.40;99.90
7934;DHT22;4012;48.896;9.192;2024-01-10T03:22:08;-2.40;99.90
7934;DHT22;4012;48.896;9.192;2024-01-10T03:24:33;-2.50;99.90
7934;DHT22;4012;48.896;9.192;2024-01-10T03:26:59;-2.60;99.90
7934;DHT22;4012;48.896;9.192;2024-01-10T03:29:25;-2.50;99.90
7934;DHT22;4012;48.896;9.192;2024-01-10T03:31:50;-2.50;99.90
7934;DHT22;4012;48.896;9.192;2024-01-10T03:34:16;-2.40;99.90
7934;DHT22;4012;48.896;9.192;2024-01-10T03:36:43;-2.50;99.90
7934;DHT22;4012;48.896;9.192;2024-01-10T03:39:09;-2.40;99.90
7934;DHT22;4012;48.896;9.192;2024-01-10T03:41:35;-2.40;99.90
7934;DHT22;4012;48.896;9.192;2024-01-10T03:44:01;-2.50;99.90
7934;DHT22;4012;48.896;9.192;2024-01-10T03:46:26;-2.40;99.90
7934;DHT22;4012;48.896;9.192;2024-01-10T03:48:52;-2.60;99.90
7934;DHT22;4012;48.896;9.192;2024-01-10T03:51:18;-2.50;99.90
7934;DHT22;4012;48.896;9.192;2024-01-10T03:53:45;-2.60;99.90
7934;DHT22;4012;48.896;9.192;2024-01-10T03:56:11;-2.40;99.90
7934;DHT22;4012;48.896;9.192;2024-01-10T03:58:37;-2.40;99.90
7934;DHT22;4012;48.896;9.192;2024-01-10T04:01:09;-2.40;99.90
7934;DHT22;4012;48.896;9.192;2024-01-10T04:03:35;-2.60;99.90
7934;DHT22;4012;48.896;9.192;2024-01-10T04:06:01;-2.60;99.90
7934;DHT22;4012;48.896;9.192;2024-01-10T04:08:27;-2.60;99.90
7934;DHT22;4012;48.896;9.192;2024-01-10T04:10:53;-2.60;99.90
7934;DHT22;4012;48.896;9.192;2024-01-10T04:13:18;-2.60;99.90
7934;DHT22;4012;48.896;9.192;2024-01-10T04:15:44;-2.60;99.90
7934;DHT22;4012;48.896;9.192;2024-01-10T04:18:09;-2.40;99.90
7934;DHT22;4012;48.896;9.192;2024-01-10T04:20:35;-2.50;99.90
7934;DHT22;4012;48.896;9.192;2024-01-10T04:23:01;-2.40;99.90
7934;DHT22;4012;48.896;9.192;2024-01-10T04:25:26;-2.30;99.90
7934;DHT22;4012;48.896;9.192;2024-01-10T04:27:52;-2.40;99.90
7934;DHT22;4012;48.896;9.192;2024-01-10T04:30:17;-2.30;99.90
7934;DHT22;4012;48.896;9.192;2024-01-10T04:32:43;-2.20;99.90
7934;DHT22;4012;48.896;9.192;2024-01-10T04:35:09;-2.10;99.90
7934;DHT22;4012;48.896;9.192;2024-01-10T04:37:35;-2.10;99.90
7934;DHT22;4012;48.896;9.192;2024-01-10T04:40:00;-2.00;99.90
7934;DHT22;4012;48.896;9.192;2024-01-10T04:42:26;-1.70;99.90
7934;DHT22;4012;48.896;9.192;2024-01-10T04:44:52;-1.70;99.90
7934;DHT22;4012;48.896;9.192;2024-01-10T04:47:17;-1.70;99.90
7934;DHT22;4012;48.896;9.192;2024-01-10T04:49:43;-1.80;99.90
7934;DHT22;4012;48.896;9.192;2024-01-10T04:52:08;-1.90;99.90
7934;DHT22;4012;48.896;9.192;2024-01-10T04:54:34;-2.00;99.90
7934;DHT22;4012;48.896;9.192;2024-01-10T04:56:59;-2.10;99.90
7934;DHT22;4012;48.896;9.192;2024-01-10T04:59:25;-2.00;99.90
7934;DHT22;4012;48.896;9.192;2024-01-10T05:01:50;-1.90;99.90
7934;DHT22;4012;48.896;9.192;2024-01-10T05:04:16;-1.80;99.90
7934;DHT22;4012;48.896;9.192;2024-01-10T05:06:42;-1.90;99.90
7934;DHT22;4012;48.896;9.192;2024-01-10T05:09:08;-2.00;99.90
7934;DHT22;4012;48.896;9.192;2024-01-10T05:11:35;-1.90;99.90
7934;DHT22;4012;48.896;9.192;2024-01-10T05:14:01;-1.90;99.90
7934;DHT22;4012;48.896;9.192;2024-01-10T05:16:27;-1.70;99.90
7934;DHT22;4012;48.896;9.192;2024-01-10T05:18:52;-1.80;99.90
7934;DHT22;4012;48.896;9.192;2024-01-10T05:21:18;-1.80;99.90
7934;DHT22;4012;48.896;9.192;2024-01-10T05:23:43;-1.70;99.90
7934;DHT22;4012;48.896;9.192;2024-01-10T05:26:09;-1.70;99.90
7934;DHT22;4012;48.896;9.192;2024-01-10T05:28:35;-1.80;99.90
7934;DHT22;4012;48.896;9.192;2024-01-10T05:31:00;-1.90;99.90
7934;DHT22;4012;48.896;9.192;2024-01-10T05:33:26;-1.80;99.90
7934;DHT22;4012;48.896;9.192;2024-01-10T05:35:52;-1.60;99.90
7934;DHT22;4012;48.896;9.192;2024-01-10T05:38:17;-1.50;99.90
7934;DHT22;4012;48.896;9.192;2024-01-10T05:40:43;-1.60;99.90
7934;DHT22;4012;48.896;9.192;2024-01-10T05:43:09;-1.50;99.90
7934;DHT22;4012;48.896;9.192;2024-01-10T05:45:38;-1.60;99.90
7934;DHT22;4012;48.896;9.192;2024-01-10T05:48:04;-1.60;99.90
7934;DHT22;4012;48.896;9.192;2024-01-10T05:50:29;-1.70;99.90
7934;DHT22;4012;48.896;9.192;2024-01-10T05:52:55;-1.70;99.90
7934;DHT22;4012;48.896;9.192;2024-01-10T05:55:21;-1.70;99.90
7934;DHT22;4012;48.896;9.192;2024-01-10T05:57:46;-1.70;99.90
7934;DHT22;4012;48.896;9.192;2024-01-10T06:00:12;-1.80;99.90
7934;DHT22;4012;48.896;9.192;2024-01-10T06:02:41;-2.10;99.90
7934;DHT22;4012;48.896;9.192;2024-01-10T06:05:11;-2.00;99.90
7934;DHT22;4012;48.896;9.192;2024-01-10T06:07:40;-2.10;99.90
7934;DHT22;4012;48.896;9.192;2024-01-10T06:10:09;-2.30;99.90
7934;DHT22;4012;48.896;9.192;2024-01-10T06:12:35;-2.20;99.90
7934;DHT22;4012;48.896;9.192;2024-01-10T06:15:01;-2.00;99.90
7934;DHT22;4012;48.896;9.192;2024-01-10T06:17:26;-2.00;99.90
7934;DHT22;4012;48.896;9.192;2024-01-10T06:19:52;-2.10;99.90
7934;DHT22;4012;48.896;9.192;2024-01-10T06:22:17;-2.10;99.90
7934;DHT22;4012;48.896;9.192;2024-01-10T06:24:44;-1.80;99.90
7934;DHT22;4012;48.896;9.192;2024-01-10T06:27:09;-1.70;99.90
7934;DHT22;4012;48.896;9.192;2024-01-10T06:29:36;-1.70;99.90
7934;DHT22;4012;48.896;9.192;2024-01-10T06:32:03;-1.70;99.90
7934;DHT22;4012;48.896;9.192;2024-01-10T06:34:29;-1.70;99.90
7934;DHT22;4012;48.896;9.192;2024-01-10T06:36:54;-1.80;99.90
7934;DHT22;4012;48.896;9.192;2024-01-10T06:39:20;-1.60;99.90
7934;DHT22;4012;48.896;9.192;2024-01-10T06:41:47;-1.60;99.90
7934;DHT22;4012;48.896;9.192;2024-01-10T06:44:13;-1.60;99.90
7934;DHT22;4012;48.896;9.192;2024-01-10T06:46:39;-1.70;99.90
7934;DHT22;4012;48.896;9.192;2024-01-10T06:49:04;-1.70;99.90
7934;DHT22;4012;48.896;9.192;2024-01-10T06:51:31;-2.00;99.90
7934;DHT22;4012;48.896;9.192;2024-01-10T06:53:56;-1.80;99.90
7934;DHT22;4012;48.896;9.192;2024-01-10T06:56:29;-1.80;99.90
7934;DHT22;4012;48.896;9.192;2024-01-10T06:58:55;-2.00;99.90
7934;DHT22;4012;48.896;9.192;2024-01-10T07:01:20;-2.10;99.90
7934;DHT22;4012;48.896;9.192;2024-01-10T07:03:47;-2.20;99.90
7934;DHT22;4012;48.896;9.192;2024-01-10T07:06:13;-2.20;99.90
7934;DHT22;4012;48.896;9.192;2024-01-10T07:08:42;-2.10;99.90
7934;DHT22;4012;48.896;9.192;2024-01-10T07:11:08;-2.00;99.90
7934;DHT22;4012;48.896;9.192;2024-01-10T07:13:34;-2.00;99.90
7934;DHT22;4012;48.896;9.192;2024-01-10T07:16:00;-2.10;99.90
7934;DHT22;4012;48.896;9.192;2024-01-10T07:18:28;-2.00;99.90
7934;DHT22;4012;48.896;9.192;2024-01-10T07:20:54;-2.00;99.90
7934;DHT22;4012;48.896;9.192;2024-01-10T07:23:19;-1.90;99.90
7934;DHT22;4012;48.896;9.192;2024-01-10T07:25:45;-2.00;99.90
7934;DHT22;4012;48.896;9.192;2024-01-10T07:28:11;-2.00;99.90
7934;DHT22;4012;48.896;9.192;2024-01-10T07:30:37;-2.00;99.90
7934;DHT22;4012;48.896;9.192;2024-01-10T07:33:02;-2.10;99.90
7934;DHT22;4012;48.896;9.192;2024-01-10T07:35:28;-1.90;99.90
7934;DHT22;4012;48.896;9.192;2024-01-10T07:37:55;-1.90;99.90
7934;DHT22;4012;48.896;9.192;2024-01-10T07:40:21;-1.80;99.90
7934;DHT22;4012;48.896;9.192;2024-01-10T07:42:48;-1.70;99.90
7934;DHT22;4012;48.896;9.192;2024-01-10T07:45:13;-1.70;99.90
7934;DHT22;4012;48.896;9.192;2024-01-10T07:47:39;-1.90;99.90
7934;DHT22;4012;48.896;9.192;2024-01-10T07:50:08;-2.10;99.90
7934;DHT22;4012;48.896;9.192;2024-01-10T07:52:34;-2.20;99.90
7934;DHT22;4012;48.896;9.192;2024-01-10T07:55:00;-2.00;99.90
7934;DHT22;4012;48.896;9.192;2024-01-10T07:57:27;-2.00;99.90
7934;DHT22;4012;48.896;9.192;2024-01-10T07:59:55;-2.10;99.90
7934;DHT22;4012;48.896;9.192;2024-01-10T08:02:21;-2.00;99.90
7934;DHT22;4012;48.896;9.192;2024-01-10T08:04:46;-2.00;99.90
7934;DHT22;4012;48.896;9.192;2024-01-10T08:07:12;-1.80;99.90
7934;DHT22;4012;48.896;9.192;2024-01-10T08:09:38;-1.80;99.90
7934;DHT22;4012;48.896;9.192;2024-01-10T08:12:04;-1.80;99.90
7934;DHT22;4012;48.896;9.192;2024-01-10T08:14:30;-1.90;99.90
7934;DHT22;4012;48.896;9.192;2024-01-10T08:16:55;-1.80;99.90
7934;DHT22;4012;48.896;9.192;2024-01-10T08:19:27;-1.60;99.90
7934;DHT22;4012;48.896;9.192;2024-01-10T08:21:53;-1.50;99.90
7934;DHT22;4012;48.896;9.192;2024-01-10T08:24:19;-1.30;99.90
7934;DHT22;4012;48.896;9.192;2024-01-10T08:26:46;-1.10;99.90
7934;DHT22;4012;48.896;9.192;2024-01-10T08:29:12;-1.10;99.90
7934;DHT22;4012;48.896;9.192;2024-01-10T08:31:38;-0.90;99.90
7934;DHT22;4012;48.896;9.192;2024-01-10T08:34:04;-0.70;99.90
7934;DHT22;4012;48.896;9.192;2024-01-10T08:36:30;-0.60;99.90
7934;DHT22;4012;48.896;9.192;2024-01-10T08:38:55;-0.50;99.90
7934;DHT22;4012;48.896;9.192;2024-01-10T08:41:21;-0.40;99.90
7934;DHT22;4012;48.896;9.192;2024-01-10T08:43:47;-0.20;99.90
7934;DHT22;4012;48.896;9.192;2024-01-10T08:46:12;0.00;99.90
7934;DHT22;4012;48.896;9.192;2024-01-10T08:48:38;0.10;99.90
7934;DHT22;4012;48.896;9.192;2024-01-10T08:51:04;0.20;99.90
7934;DHT22;4012;48.896;9.192;2024-01-10T08:53:30;0.30;99.90
7934;DHT22;4012;48.896;9.192;2024-01-10T08:55:55;0.20;99.90
7934;DHT22;4012;48.896;9.192;2024-01-10T08:58:21;0.10;99.90
7934;DHT22;4012;48.896;9.192;2024-01-10T09:00:47;0.30;99.90
7934;DHT22;4012;48.896;9.192;2024-01-10T09:03:12;0.30;99.90
7934;DHT22;4012;48.896;9.192;2024-01-10T09:05:38;-0.30;99.90
7934;DHT22;4012;48.896;9.192;2024-01-10T09:08:04;-0.50;99.90
7934;DHT22;4012;48.896;9.192;2024-01-10T09:10:30;-1.00;99.90
7934;DHT22;4012;48.896;9.192;2024-01-10T09:12:58;-1.20;99.90
7934;DHT22;4012;48.896;9.192;2024-01-10T09:15:24;-1.20;99.90
7934;DHT22;4012;48.896;9.192;2024-01-10T09:17:50;-1.00;99.90
7934;DHT22;4012;48.896;9.192;2024-01-10T09:20:17;-0.40;99.90
7934;DHT22;4012;48.896;9.192;2024-01-10T09:22:43;0.50;99.90
7934;DHT22;4012;48.896;9.192;2024-01-10T09:25:09;1.40;99.90
7934;DHT22;4012;48.896;9.192;2024-01-10T09:27:38;2.10;99.90
7934;DHT22;4012;48.896;9.192;2024-01-10T09:30:06;4.60;99.90
7934;DHT22;4012;48.896;9.192;2024-01-10T09:32:34;6.00;99.90
7934;DHT22;4012;48.896;9.192;2024-01-10T09:35:00;6.90;99.90
7934;DHT22;4012;48.896;9.192;2024-01-10T09:37:26;7.20;99.90
7934;DHT22;4012;48.896;9.192;2024-01-10T09:39:52;7.30;99.90
7934;DHT22;4012;48.896;9.192;2024-01-10T09:42:19;7.10;99.90
7934;DHT22;4012;48.896;9.192;2024-01-10T09:44:47;7.20;99.90
7934;DHT22;4012;48.896;9.192;2024-01-10T09:47:13;5.90;99.90
7934;DHT22;4012;48.896;9.192;2024-01-10T09:49:40;5.40;99.90
7934;DHT22;4012;48.896;9.192;2024-01-10T09:52:09;3.60;99.90
7934;DHT22;4012;48.896;9.192;2024-01-10T09:54:38;5.40;99.90
7934;DHT22;4012;48.896;9.192;2024-01-10T09:57:04;6.90;99.90
7934;DHT22;4012;48.896;9.192;2024-01-10T09:59:31;7.30;99.90
7934;DHT22;4012;48.896;9.192;2024-01-10T10:01:57;6.40;99.90
7934;DHT22;4012;48.896;9.192;2024-01-10T10:04:27;6.30;99.90
7934;DHT22;4012;48.896;9.192;2024-01-10T10:07:00;7.20;99.90
7934;DHT22;4012;48.896;9.192;2024-01-10T10:09:26;5.10;99.90
7934;DHT22;4012;48.896;9.192;2024-01-10T10:11:56;6.40;99.90
7934;DHT22;4012;48.896;9.192;2024-01-10T10:14:28;6.90;99.90
7934;DHT22;4012;48.896;9.192;2024-01-10T10:16:54;7.40;99.90
7934;DHT22;4012;48.896;9.192;2024-01-10T10:19:26;7.60;99.90
7934;DHT22;4012;48.896;9.192;2024-01-10T10:21:51;7.50;99.90
7934;DHT22;4012;48.896;9.192;2024-01-10T10:24:17;7.40;99.90
7934;DHT22;4012;48.896;9.192;2024-01-10T10:26:42;6.20;99.90
7934;DHT22;4012;48.896;9.192;2024-01-10T10:29:10;6.00;99.90
7934;DHT22;4012;48.896;9.192;2024-01-10T10:31:35;6.70;99.90
7934;DHT22;4012;48.896;9.192;2024-01-10T10:34:01;6.80;99.90
7934;DHT22;4012;48.896;9.192;2024-01-10T10:36:29;6.60;99.90
7934;DHT22;4012;48.896;9.192;2024-01-10T10:38:55;4.60;99.90
7934;DHT22;4012;48.896;9.192;2024-01-10T10:41:21;5.10;99.90
7934;DHT22;4012;48.896;9.192;2024-01-10T10:43:47;3.90;99.90
7934;DHT22;4012;48.896;9.192;2024-01-10T10:46:15;5.40;99.90
7934;DHT22;4012;48.896;9.192;2024-01-10T10:48:42;3.50;99.90
7934;DHT22;4012;48.896;9.192;2024-01-10T10:51:09;3.70;99.90
7934;DHT22;4012;48.896;9.192;2024-01-10T10:53:37;5.30;99.90
7934;DHT22;4012;48.896;9.192;2024-01-10T10:56:04;4.20;99.90
7934;DHT22;4012;48.896;9.192;2024-01-10T10:58:35;4.10;99.90
7934;DHT22;4012;48.896;9.192;2024-01-10T11:01:04;4.20;99.90
7934;DHT22;4012;48.896;9.192;2024-01-10T11:03:31;5.90;99.90
7934;DHT22;4012;48.896;9.192;2024-01-10T11:05:59;6.30;99.90
7934;DHT22;4012;48.896;9.192;2024-01-10T11:08:26;4.30;99.90
7934;DHT22;4012;48.896;9.192;2024-01-10T11:10:53;2.90;99.90
7934;DHT22;4012;48.896;9.192;2024-01-10T11:13:27;2.10;99.90
7934;DHT22;4012;48.896;9.192;2024-01-10T11:16:32;2.10;99.90
7934;DHT22;4012;48.896;9.192;2024-01-10T11:19:14;3.00;99.90
7934;DHT22;4012;48.896;9.192;2024-01-10T11:22:15;2.60;99.90
7934;DHT22;4012;48.896;9.192;2024-01-10T11:24:44;2.00;99.90
7934;DHT22;4012;48.896;9.192;2024-01-10T11:27:14;2.10;99.90
7934;DHT22;4012;48.896;9.192;2024-01-10T11:29:40;1.50;99.90
7934;DHT22;4012;48.896;9.192;2024-01-10T11:32:16;1.40;99.90
7934;DHT22;4012;48.896;9.192;2024-01-10T11:34:54;1.70;99.90
7934;DHT22;4012;48.896;9.192;2024-01-10T11:37:45;1.10;99.90
7934;DHT22;4012;48.896;9.192;2024-01-10T11:40:14;1.10;99.90
7934;DHT22;4012;48.896;9.192;2024-01-10T11:42:45;0.90;99.90
7934;DHT22;4012;48.896;9.192;2024-01-10T11:47:59;0.80;99.90
7934;DHT22;4012;48.896;9.192;2024-01-10T11:50:25;1.20;99.90
7934;DHT22;4012;48.896;9.192;2024-01-10T11:52:55;1.30;99.90
7934;DHT22;4012;48.896;9.192;2024-01-10T11:55:54;1.20;99.90
7934;DHT22;4012;48.896;9.192;2024-01-10T11:58:23;0.60;99.90
7934;DHT22;4012;48.896;9.192;2024-01-10T12:00:49;0.90;99.90
7934;DHT22;4012;48.896;9.192;2024-01-10T12:03:15;1.10;99.90
7934;DHT22;4012;48.896;9.192;2024-01-10T12:05:42;1.30;99.90
7934;DHT22;4012;48.896;9.192;2024-01-10T12:08:09;1.50;99.90
7934;DHT22;4012;48.896;9.192;2024-01-10T12:10:35;1.60;99.90
7934;DHT22;4012;48.896;9.192;2024-01-10T12:13:04;1.80;99.90
7934;DHT22;4012;48.896;9.192;2024-01-10T12:15:30;1.90;99.90
7934;DHT22;4012;48.896;9.192;2024-01-10T12:17:56;2.00;99.90
7934;DHT22;4012;48.896;9.192;2024-01-10T12:20:21;1.50;99.90
7934;DHT22;4012;48.896;9.192;2024-01-10T12:22:47;1.30;99.90
7934;DHT22;4012;48.896;9.192;2024-01-10T12:25:13;1.70;99.90
7934;DHT22;4012;48.896;9.192;2024-01-10T12:27:39;1.90;99.90
7934;DHT22;4012;48.896;9.192;2024-01-10T12:30:06;1.30;99.90
7934;DHT22;4012;48.896;9.192;2024-01-10T12:32:32;1.00;99.90
7934;DHT22;4012;48.896;9.192;2024-01-10T12:35:03;1.00;99.90
7934;DHT22;4012;48.896;9.192;2024-01-10T12:37:29;1.50;99.90
7934;DHT22;4012;48.896;9.192;2024-01-10T12:39:55;1.60;99.90
7934;DHT22;4012;48.896;9.192;2024-01-10T12:42:21;1.60;99.90
7934;DHT22;4012;48.896;9.192;2024-01-10T12:44:47;1.20;99.90
7934;DHT22;4012;48.896;9.192;2024-01-10T12:47:20;1.00;99.90
7934;DHT22;4012;48.896;9.192;2024-01-10T12:49:46;1.30;99.90
7934;DHT22;4012;48.896;9.192;2024-01-10T12:52:12;1.50;99.90
7934;DHT22;4012;48.896;9.192;2024-01-10T12:54:41;1.60;99.90
7934;DHT22;4012;48.896;9.192;2024-01-10T12:57:07;1.80;99.90
7934;DHT22;4012;48.896;9.192;2024-01-10T12:59:33;2.00;99.90
7934;DHT22;4012;48.896;9.192;2024-01-10T13:01:59;1.50;99.90
7934;DHT22;4012;48.896;9.192;2024-01-10T13:04:27;1.30;99.90
7934;DHT22;4012;48.896;9.192;2024-01-10T13:06:52;1.50;99.90
7934;DHT22;4012;48.896;9.192;2024-01-10T13:09:18;1.50;99.90
7934;DHT22;4012;48.896;9.192;2024-01-10T13:11:44;1.50;99.90
7934;DHT22;4012;48.896;9.192;2024-01-10T13:14:11;1.80;99.90
7934;DHT22;4012;48.896;9.192;2024-01-10T13:16:37;1.90;99.90
7934;DHT22;4012;48.896;9.192;2024-01-10T13:19:03;1.50;99.90
7934;DHT22;4012;48.896;9.192;2024-01-10T13:21:29;1.30;99.90
7934;DHT22;4012;48.896;9.192;2024-01-10T13:23:54;1.10;99.90
7934;DHT22;4012;48.896;9.192;2024-01-10T13:26:20;1.10;99.90
7934;DHT22;4012;48.896;9.192;2024-01-10T13:28:46;1.20;99.90
7934;DHT22;4012;48.896;9.192;2024-01-10T13:31:11;1.20;99.90
7934;DHT22;4012;48.896;9.192;2024-01-10T13:33:37;1.30;99.90
7934;DHT22;4012;48.896;9.192;2024-01-10T13:36:04;1.40;99.90
7934;DHT22;4012;48.896;9.192;2024-01-10T13:38:30;1.50;99.90
7934;DHT22;4012;48.896;9.192;2024-01-10T13:40:56;1.60;99.90
7934;DHT22;4012;48.896;9.192;2024-01-10T13:43:21;1.80;99.90
7934;DHT22;4012;48.896;9.192;2024-01-10T13:45:47;1.70;99.90
7934;DHT22;4012;48.896;9.192;2024-01-10T13:48:13;1.60;99.90
7934;DHT22;4012;48.896;9.192;2024-01-10T13:50:38;1.50;99.90
7934;DHT22;4012;48.896;9.192;2024-01-10T13:53:04;1.40;99.90
7934;DHT22;4012;48.896;9.192;2024-01-10T13:55:30;1.60;99.90
7934;DHT22;4012;48.896;9.192;2024-01-10T13:57:56;1.70;99.90
7934;DHT22;4012;48.896;9.192;2024-01-10T14:00:22;1.70;99.90
7934;DHT22;4012;48.896;9.192;2024-01-10T14:02:48;1.60;99.90
7934;DHT22;4012;48.896;9.192;2024-01-10T14:05:14;1.50;99.90
7934;DHT22;4012;48.896;9.192;2024-01-10T14:07:39;1.70;99.90
7934;DHT22;4012;48.896;9.192;2024-01-10T14:10:05;1.60;99.90
7934;DHT22;4012;48.896;9.192;2024-01-10T14:12:31;1.60;99.90
7934;DHT22;4012;48.896;9.192;2024-01-10T14:14:57;1.70;99.90
7934;DHT22;4012;48.896;9.192;2024-01-10T14:17:25;1.60;99.90
7934;DHT22;4012;48.896;9.192;2024-01-10T14:19:52;1.70;99.90
7934;DHT22;4012;48.896;9.192;2024-01-10T14:22:18;1.70;99.90
7934;DHT22;4012;48.896;9.192;2024-01-10T14:24:44;1.70;99.90
7934;DHT22;4012;48.896;9.192;2024-01-10T14:27:10;1.70;99.90
7934;DHT22;4012;48.896;9.192;2024-01-10T14:29:35;1.60;99.90
7934;DHT22;4012;48.896;9.192;2024-01-10T14:32:01;1.60;99.90
7934;DHT22;4012;48.896;9.192;2024-01-10T14:34:27;1.70;99.90
7934;DHT22;4012;48.896;9.192;2024-01-10T14:36:53;1.80;99.90
7934;DHT22;4012;48.896;9.192;2024-01-10T14:39:18;1.70;99.90
7934;DHT22;4012;48.896;9.192;2024-01-10T14:41:44;1.60;99.90
7934;DHT22;4012;48.896;9.192;2024-01-10T14:44:10;1.70;99.90
7934;DHT22;4012;48.896;9.192;2024-01-10T14:46:36;1.60;99.90
7934;DHT22;4012;48.896;9.192;2024-01-10T14:49:02;1.70;99.90
7934;DHT22;4012;48.896;9.192;2024-01-10T14:51:27;1.70;99.90
7934;DHT22;4012;48.896;9.192;2024-01-10T14:53:53;1.70;99.90
7934;DHT22;4012;48.896;9.192;2024-01-10T14:56:19;1.60;99.90
7934;DHT22;4012;48.896;9.192;2024-01-10T14:58:44;1.70;99.90
7934;DHT22;4012;48.896;9.192;2024-01-10T15:01:10;1.80;99.90
7934;DHT22;4012;48.896;9.192;2024-01-10T15:03:36;1.80;99.90
7934;DHT22;4012;48.896;9.192;2024-01-10T15:06:04;1.60;99.90
7934;DHT22;4012;48.896;9.192;2024-01-10T15:08:30;1.50;99.90
7934;DHT22;4012;48.896;9.192;2024-01-10T15:10:56;1.60;99.90
7934;DHT22;4012;48.896;9.192;2024-01-10T15:13:21;1.60;99.90
7934;DHT22;4012;48.896;9.192;2024-01-10T15:15:47;1.60;99.90
7934;DHT22;4012;48.896;9.192;2024-01-10T15:18:12;1.60;99.90
7934;DHT22;4012;48.896;9.192;2024-01-10T15:20:38;1.60;99.90
7934;DHT22;4012;48.896;9.192;2024-01-10T15:23:04;1.70;99.90
7934;DHT22;4012;48.896;9.192;2024-01-10T15:25:30;1.70;99.90
7934;DHT22;4012;48.896;9.192;2024-01-10T15:27:55;1.60;99.90
7934;DHT22;4012;48.896;9.192;2024-01-10T15:30:21;1.50;99.90
7934;DHT22;4012;48.896;9.192;2024-01-10T15:32:49;1.50;99.90
7934;DHT22;4012;48.896;9.192;2024-01-10T15:35:15;1.60;99.90
7934;DHT22;4012;48.896;9.192;2024-01-10T15:37:40;1.50;99.90
7934;DHT22;4012;48.896;9.192;2024-01-10T15:40:13;1.50;99.90
7934;DHT22;4012;48.896;9.192;2024-01-10T15:42:40;1.40;99.90
7934;DHT22;4012;48.896;9.192;2024-01-10T15:45:15;1.40;99.90
7934;DHT22;4012;48.896;9.192;2024-01-10T15:47:41;1.30;99.90
7934;DHT22;4012;48.896;9.192;2024-01-10T15:50:07;1.40;99.90
7934;DHT22;4012;48.896;9.192;2024-01-10T15:52:34;1.40;99.90
7934;DHT22;4012;48.896;9.192;2024-01-10T15:55:04;1.30;99.90
7934;DHT22;4012;48.896;9.192;2024-01-10T15:57:30;1.30;99.90
7934;DHT22;4012;48.896;9.192;2024-01-10T15:59:55;1.30;99.90
7934;DHT22;4012;48.896;9.192;2024-01-10T16:02:23;1.60;99.90
7934;DHT22;4012;48.896;9.192;2024-01-10T16:04:49;1.40;99.90
7934;DHT22;4012;48.896;9.192;2024-01-10T16:07:14;1.30;99.90